sensor_id;sensor_type;location;lat;lon;timestamp;pressure;altitude;pressure_sealevel;temperature;humidity
57086;BME280;42964;42.910;23.792;2023-06-10T00:00:09;97237.63;;;16.36;87.91
57086;BME280;42964;42.910;23.792;2023-06-10T00:05:11;97233.84;;;16.18;88.91
57086;BME280;42964;42.910;23.792;2023-06-10T00:10:10;97234.75;;;16.17;89.08
57086;BME280;42964;42.910;23.792;2023-06-10T00:15:10;97192.22;;;15.82;88.73
57086;BME280;42964;42.910;23.792;2023-06-10T00:20:10;97238.75;;;16.00;88.59
57086;BME280;42964;42.910;23.792;2023-06-10T00:25:11;97255.34;;;15.99;88.42
57086;BME280;42964;42.910;23.792;2023-06-10T00:30:11;97244.72;;;16.05;88.26
57086;BME280;42964;42.910;23.792;2023-06-10T00:35:10;97241.94;;;16.10;88.12
57086;BME280;42964;42.910;23.792;2023-06-10T00:40:10;97237.41;;;16.15;88.27
57086;BME280;42964;42.910;23.792;2023-06-10T00:45:09;97242.38;;;16.24;87.95
57086;BME280;42964;42.910;23.792;2023-06-10T00:50:08;97243.13;;;16.28;87.81
57086;BME280;42964;42.910;23.792;2023-06-10T00:55:08;97244.50;;;16.40;87.71
57086;BME280;42964;42.910;23.792;2023-06-10T01:00:07;97242.22;;;16.29;87.56
57086;BME280;42964;42.910;23.792;2023-06-10T01:05:08;97261.88;;;16.42;87.61
57086;BME280;42964;42.910;23.792;2023-06-10T01:10:25;97266.19;;;16.43;87.75
57086;BME280;42964;42.910;23.792;2023-06-10T01:15:28;97253.78;;;16.22;89.01
57086;BME280;42964;42.910;23.792;2023-06-10T01:20:29;97259.22;;;16.16;89.04
57086;BME280;42964;42.910;23.792;2023-06-10T01:25:30;97269.53;;;16.20;89.35
57086;BME280;42964;42.910;23.792;2023-06-10T01:30:37;97272.22;;;16.19;89.31
57086;BME280;42964;42.910;23.792;2023-06-10T01:35:41;97253.78;;;16.22;89.68
57086;BME280;42964;42.910;23.792;2023-06-10T01:40:42;97194.44;;;15.94;89.21
57086;BME280;42964;42.910;23.792;2023-06-10T01:45:41;97259.22;;;16.16;89.79
57086;BME280;42964;42.910;23.792;2023-06-10T01:50:40;97256.09;;;16.04;90.96
57086;BME280;42964;42.910;23.792;2023-06-10T01:55:39;97251.75;;;16.03;90.81
57086;BME280;42964;42.910;23.792;2023-06-10T02:00:38;97266.56;;;16.04;90.79
57086;BME280;42964;42.910;23.792;2023-06-10T02:05:37;97251.63;;;16.06;90.94
57086;BME280;42964;42.910;23.792;2023-06-10T02:10:36;97260.78;;;16.21;90.49
57086;BME280;42964;42.910;23.792;2023-06-10T02:15:35;97263.31;;;16.24;90.52
57086;BME280;42964;42.910;23.792;2023-06-10T02:20:34;97254.47;;;16.28;91.06
57086;BME280;42964;42.910;23.792;2023-06-10T02:25:33;97253.41;;;16.34;91.38
57086;BME280;42964;42.910;23.792;2023-06-10T02:30:32;97246.47;;;16.33;91.97
57086;BME280;42964;42.910;23.792;2023-06-10T02:35:31;97241.41;;;16.27;92.83
57086;BME280;42964;42.910;23.792;2023-06-10T02:40:30;97255.00;;;16.38;92.49
57086;BME280;42964;42.910;23.792;2023-06-10T02:45:29;97241.78;;;16.43;92.22
57086;BME280;42964;42.910;23.792;2023-06-10T02:50:28;97246.88;;;16.47;92.41
57086;BME280;42964;42.910;23.792;2023-06-10T02:55:27;97242.47;;;16.48;92.60
57086;BME280;42964;42.910;23.792;2023-06-10T03:00:26;97250.19;;;16.52;92.71
57086;BME280;42964;42.910;23.792;2023-06-10T03:05:25;97256.13;;;16.58;91.89
57086;BME280;42964;42.910;23.792;2023-06-10T03:10:24;97259.03;;;16.22;93.11
57086;BME280;42964;42.910;23.792;2023-06-10T03:15:24;97237.44;;;15.56;96.58
57086;BME280;42964;42.910;23.792;2023-06-10T03:20:23;97284.81;;;15.45;99.50
57086;BME280;42964;42.910;23.792;2023-06-10T03:25:22;97289.78;;;15.54;99.67
57086;BME280;42964;42.910;23.792;2023-06-10T03:30:21;97283.13;;;15.74;98.96
57086;BME280;42964;42.910;23.792;2023-06-10T03:35:19;97283.63;;;15.88;98.00
57086;BME280;42964;42.910;23.792;2023-06-10T03:40:19;97282.41;;;16.00;97.72
57086;BME280;42964;42.910;23.792;2023-06-10T03:45:18;97278.50;;;16.13;97.58
57086;BME280;42964;42.910;23.792;2023-06-10T03:50:17;97283.41;;;16.24;97.23
57086;BME280;42964;42.910;23.792;2023-06-10T03:55:16;97269.50;;;16.22;96.50
57086;BME280;42964;42.910;23.792;2023-06-10T04:00:16;97281.09;;;16.13;96.95
57086;BME280;42964;42.910;23.792;2023-06-10T04:05:16;97272.25;;;16.17;96.90
57086;BME280;42964;42.910;23.792;2023-06-10T04:10:15;97280.06;;;16.19;97.20
57086;BME280;42964;42.910;23.792;2023-06-10T04:15:14;97277.66;;;16.39;97.37
57086;BME280;42964;42.910;23.792;2023-06-10T04:20:15;97273.66;;;16.56;96.69
57086;BME280;42964;42.910;23.792;2023-06-10T04:25:14;97271.59;;;16.65;96.14
57086;BME280;42964;42.910;23.792;2023-06-10T04:30:13;97273.00;;;16.76;95.87
57086;BME280;42964;42.910;23.792;2023-06-10T04:35:12;97277.00;;;16.87;94.61
57086;BME280;42964;42.910;23.792;2023-06-10T04:40:12;97246.72;;;16.52;94.70
57086;BME280;42964;42.910;23.792;2023-06-10T04:45:12;97278.81;;;16.85;94.27
57086;BME280;42964;42.910;23.792;2023-06-10T04:50:11;97280.34;;;16.91;93.35
57086;BME280;42964;42.910;23.792;2023-06-10T04:55:10;97280.84;;;17.02;93.21
57086;BME280;42964;42.910;23.792;2023-06-10T05:00:10;97244.38;;;16.96;92.50
57086;BME280;42964;42.910;23.792;2023-06-10T05:05:09;97277.09;;;17.34;91.87
57086;BME280;42964;42.910;23.792;2023-06-10T05:10:09;97261.69;;;17.50;91.62
57086;BME280;42964;42.910;23.792;2023-06-10T05:15:08;97268.44;;;17.81;91.19
57086;BME280;42964;42.910;23.792;2023-06-10T05:20:07;97267.88;;;17.96;89.27
57086;BME280;42964;42.910;23.792;2023-06-10T05:25:07;97273.72;;;17.80;89.84
57086;BME280;42964;42.910;23.792;2023-06-10T05:30:07;97265.63;;;17.62;90.53
57086;BME280;42964;42.910;23.792;2023-06-10T05:35:07;97271.25;;;17.51;91.26
57086;BME280;42964;42.910;23.792;2023-06-10T05:40:06;97273.50;;;17.62;90.55
57086;BME280;42964;42.910;23.792;2023-06-10T05:45:06;97266.00;;;17.51;89.30
57086;BME280;42964;42.910;23.792;2023-06-10T05:50:06;97271.06;;;17.81;87.59
57086;BME280;42964;42.910;23.792;2023-06-10T05:55:09;97264.34;;;17.72;88.40
57086;BME280;42964;42.910;23.792;2023-06-10T06:00:08;97279.88;;;18.02;85.22
57086;BME280;42964;42.910;23.792;2023-06-10T06:05:08;97272.13;;;18.43;83.98
57086;BME280;42964;42.910;23.792;2023-06-10T06:10:07;97276.34;;;18.91;82.90
57086;BME280;42964;42.910;23.792;2023-06-10T06:15:06;97270.41;;;19.27;80.64
57086;BME280;42964;42.910;23.792;2023-06-10T06:20:07;97272.25;;;19.85;80.86
57086;BME280;42964;42.910;23.792;2023-06-10T06:25:06;97266.66;;;20.29;77.79
57086;BME280;42964;42.910;23.792;2023-06-10T06:30:06;97271.03;;;20.66;75.06
57086;BME280;42964;42.910;23.792;2023-06-10T06:35:05;97254.53;;;20.98;70.78
57086;BME280;42964;42.910;23.792;2023-06-10T06:40:07;97252.91;;;21.12;69.61
57086;BME280;42964;42.910;23.792;2023-06-10T06:45:06;97249.78;;;21.39;68.59
57086;BME280;42964;42.910;23.792;2023-06-10T06:50:05;97248.75;;;21.42;66.71
57086;BME280;42964;42.910;23.792;2023-06-10T06:55:05;97242.22;;;21.49;67.26
57086;BME280;42964;42.910;23.792;2023-06-10T07:00:05;97248.81;;;21.58;66.31
57086;BME280;42964;42.910;23.792;2023-06-10T07:05:04;97243.91;;;21.83;64.56
57086;BME280;42964;42.910;23.792;2023-06-10T07:10:04;97235.09;;;22.00;62.98
57086;BME280;42964;42.910;23.792;2023-06-10T07:15:03;97239.00;;;22.09;62.52
57086;BME280;42964;42.910;23.792;2023-06-10T07:20:03;97234.25;;;22.46;61.46
57086;BME280;42964;42.910;23.792;2023-06-10T07:25:02;97232.28;;;22.65;60.54
57086;BME280;42964;42.910;23.792;2023-06-10T07:30:02;97231.09;;;22.55;58.37
57086;BME280;42964;42.910;23.792;2023-06-10T07:35:01;97195.91;;;22.38;59.63
57086;BME280;42964;42.910;23.792;2023-06-10T07:40:00;97234.16;;;22.63;57.99
57086;BME280;42964;42.910;23.792;2023-06-10T07:44:59;97222.34;;;22.38;60.08
57086;BME280;42964;42.910;23.792;2023-06-10T07:49:58;97184.22;;;22.43;57.60
57086;BME280;42964;42.910;23.792;2023-06-10T07:54:57;97216.03;;;22.87;54.67
57086;BME280;42964;42.910;23.792;2023-06-10T07:59:56;97218.41;;;22.92;54.55
57086;BME280;42964;42.910;23.792;2023-06-10T08:04:56;97220.13;;;23.07;53.39
57086;BME280;42964;42.910;23.792;2023-06-10T08:09:55;97223.41;;;22.96;51.69
57086;BME280;42964;42.910;23.792;2023-06-10T08:14:54;97213.94;;;22.92;53.34
57086;BME280;42964;42.910;23.792;2023-06-10T08:19:53;97205.47;;;23.16;52.93
57086;BME280;42964;42.910;23.792;2023-06-10T08:24:52;97199.53;;;23.70;52.80
57086;BME280;42964;42.910;23.792;2023-06-10T08:29:51;97192.03;;;24.32;51.71
57086;BME280;42964;42.910;23.792;2023-06-10T08:34:50;97196.75;;;24.41;52.71
57086;BME280;42964;42.910;23.792;2023-06-10T08:39:49;97185.44;;;24.25;47.43
57086;BME280;42964;42.910;23.792;2023-06-10T08:44:58;97199.03;;;24.33;47.52
57086;BME280;42964;42.910;23.792;2023-06-10T08:50:02;97176.13;;;24.32;45.74
57086;BME280;42964;42.910;23.792;2023-06-10T08:55:18;97185.75;;;24.20;46.23
57086;BME280;42964;42.910;23.792;2023-06-10T09:00:19;97136.91;;;24.10;45.31
57086;BME280;42964;42.910;23.792;2023-06-10T09:05:18;97176.59;;;24.52;44.67
57086;BME280;42964;42.910;23.792;2023-06-10T09:10:17;97175.44;;;24.96;44.59
57086;BME280;42964;42.910;23.792;2023-06-10T09:15:16;97161.34;;;25.21;42.96
57086;BME280;42964;42.910;23.792;2023-06-10T09:20:16;97159.91;;;25.41;41.79
57086;BME280;42964;42.910;23.792;2023-06-10T09:25:15;97161.03;;;25.88;42.58
57086;BME280;42964;42.910;23.792;2023-06-10T09:30:28;97152.84;;;26.39;43.17
57086;BME280;42964;42.910;23.792;2023-06-10T09:35:29;97157.84;;;26.20;39.67
57086;BME280;42964;42.910;23.792;2023-06-10T09:40:28;97150.91;;;25.93;39.06
57086;BME280;42964;42.910;23.792;2023-06-10T09:45:31;97134.19;;;25.67;40.12
57086;BME280;42964;42.910;23.792;2023-06-10T09:50:33;97152.41;;;25.35;40.69
57086;BME280;42964;42.910;23.792;2023-06-10T09:55:33;97134.56;;;25.11;40.88
57086;BME280;42964;42.910;23.792;2023-06-10T10:00:33;97149.66;;;25.23;41.66
57086;BME280;42964;42.910;23.792;2023-06-10T10:05:32;97133.16;;;25.31;43.22
57086;BME280;42964;42.910;23.792;2023-06-10T10:10:31;97136.97;;;25.27;42.57
57086;BME280;42964;42.910;23.792;2023-06-10T10:15:32;97129.53;;;25.45;42.65
57086;BME280;42964;42.910;23.792;2023-06-10T10:20:34;97130.53;;;24.93;43.39
57086;BME280;42964;42.910;23.792;2023-06-10T10:25:40;97122.69;;;25.04;43.03
57086;BME280;42964;42.910;23.792;2023-06-10T10:30:42;97116.09;;;25.09;42.49
57086;BME280;42964;42.910;23.792;2023-06-10T10:35:41;97111.28;;;25.15;42.83
57086;BME280;42964;42.910;23.792;2023-06-10T10:40:42;97099.63;;;25.04;41.89
57086;BME280;42964;42.910;23.792;2023-06-10T10:45:45;97099.78;;;25.40;42.41
57086;BME280;42964;42.910;23.792;2023-06-10T10:50:56;97065.88;;;25.43;39.92
57086;BME280;42964;42.910;23.792;2023-06-10T10:56:07;97081.16;;;25.52;41.97
57086;BME280;42964;42.910;23.792;2023-06-10T11:01:11;97052.50;;;25.58;41.53
57086;BME280;42964;42.910;23.792;2023-06-10T11:06:14;97083.78;;;26.13;40.90
57086;BME280;42964;42.910;23.792;2023-06-10T11:11:24;97063.41;;;26.49;39.78
57086;BME280;42964;42.910;23.792;2023-06-10T11:16:26;97052.38;;;26.07;38.75
57086;BME280;42964;42.910;23.792;2023-06-10T11:21:25;97066.59;;;25.95;39.85
57086;BME280;42964;42.910;23.792;2023-06-10T11:31:43;97053.28;;;25.95;40.51
57086;BME280;42964;42.910;23.792;2023-06-10T11:36:43;97055.13;;;26.06;39.23
57086;BME280;42964;42.910;23.792;2023-06-10T11:41:45;97028.63;;;25.69;38.42
57086;BME280;42964;42.910;23.792;2023-06-10T11:46:44;97039.66;;;26.00;39.55
57086;BME280;42964;42.910;23.792;2023-06-10T11:51:43;97045.72;;;26.48;39.46
57086;BME280;42964;42.910;23.792;2023-06-10T11:56:47;97032.81;;;26.66;38.75
57086;BME280;42964;42.910;23.792;2023-06-10T12:01:49;97031.06;;;27.01;38.08
57086;BME280;42964;42.910;23.792;2023-06-10T12:06:51;97031.06;;;27.01;38.44
57086;BME280;42964;42.910;23.792;2023-06-10T12:12:00;97022.06;;;26.56;39.94
57086;BME280;42964;42.910;23.792;2023-06-10T12:17:00;97019.13;;;26.60;39.88
57086;BME280;42964;42.910;23.792;2023-06-10T12:22:00;97016.59;;;26.69;40.90
57086;BME280;42964;42.910;23.792;2023-06-10T12:26:59;97015.66;;;26.70;40.88
57086;BME280;42964;42.910;23.792;2023-06-10T12:32:03;97011.91;;;26.73;41.68
57086;BME280;42964;42.910;23.792;2023-06-10T12:37:06;97001.00;;;26.65;39.36
57086;BME280;42964;42.910;23.792;2023-06-10T12:42:12;96986.13;;;26.40;41.35
57086;BME280;42964;42.910;23.792;2023-06-10T12:47:11;97006.53;;;26.28;40.55
57086;BME280;42964;42.910;23.792;2023-06-10T12:52:13;96996.97;;;26.36;40.77
57086;BME280;42964;42.910;23.792;2023-06-10T12:57:12;97000.84;;;26.44;39.81
57086;BME280;42964;42.910;23.792;2023-06-10T13:02:11;96994.34;;;26.70;39.83
57086;BME280;42964;42.910;23.792;2023-06-10T13:07:11;96996.19;;;27.15;39.73
57086;BME280;42964;42.910;23.792;2023-06-10T13:12:10;96993.53;;;26.70;39.14
57086;BME280;42964;42.910;23.792;2023-06-10T13:17:10;96991.94;;;26.78;39.20
57086;BME280;42964;42.910;23.792;2023-06-10T13:22:09;96988.19;;;26.70;38.66
57086;BME280;42964;42.910;23.792;2023-06-10T13:27:08;96992.66;;;26.69;39.45
57086;BME280;42964;42.910;23.792;2023-06-10T13:32:08;96958.28;;;26.55;39.52
57086;BME280;42964;42.910;23.792;2023-06-10T13:37:06;96988.66;;;26.52;38.92
57086;BME280;42964;42.910;23.792;2023-06-10T13:42:06;96987.72;;;26.53;38.74
57086;BME280;42964;42.910;23.792;2023-06-10T13:47:06;96986.56;;;26.33;39.88
57086;BME280;42964;42.910;23.792;2023-06-10T13:52:06;96980.16;;;26.36;40.21
57086;BME280;42964;42.910;23.792;2023-06-10T13:57:05;96984.28;;;26.40;38.55
57086;BME280;42964;42.910;23.792;2023-06-10T14:02:04;96979.72;;;26.53;37.83
57086;BME280;42964;42.910;23.792;2023-06-10T14:07:04;96969.31;;;26.62;38.72
57086;BME280;42964;42.910;23.792;2023-06-10T14:12:03;96971.00;;;26.51;37.87
57086;BME280;42964;42.910;23.792;2023-06-10T14:17:02;96968.59;;;26.37;38.75
57086;BME280;42964;42.910;23.792;2023-06-10T14:22:03;96951.28;;;26.43;38.19
57086;BME280;42964;42.910;23.792;2023-06-10T14:27:02;96957.19;;;26.24;38.18
57086;BME280;42964;42.910;23.792;2023-06-10T14:32:01;96960.94;;;26.21;37.61
57086;BME280;42964;42.910;23.792;2023-06-10T14:37:00;96962.75;;;26.21;38.97
57086;BME280;42964;42.910;23.792;2023-06-10T14:42:02;96958.16;;;26.34;38.17
57086;BME280;42964;42.910;23.792;2023-06-10T14:47:01;96956.47;;;26.55;38.31
57086;BME280;42964;42.910;23.792;2023-06-10T14:52:00;96949.72;;;26.96;38.08
57086;BME280;42964;42.910;23.792;2023-06-10T14:56:59;96946.34;;;26.94;35.76
57086;BME280;42964;42.910;23.792;2023-06-10T15:01:58;96952.59;;;27.05;35.80
57086;BME280;42964;42.910;23.792;2023-06-10T15:06:59;96950.81;;;26.94;36.88
57086;BME280;42964;42.910;23.792;2023-06-10T15:11:58;96945.34;;;26.73;36.65
57086;BME280;42964;42.910;23.792;2023-06-10T15:16:58;96941.50;;;26.66;36.52
57086;BME280;42964;42.910;23.792;2023-06-10T15:21:58;96938.47;;;26.82;37.59
57086;BME280;42964;42.910;23.792;2023-06-10T15:26:56;96939.78;;;26.76;36.73
57086;BME280;42964;42.910;23.792;2023-06-10T15:31:55;96948.25;;;26.81;37.08
57086;BME280;42964;42.910;23.792;2023-06-10T15:36:54;96946.34;;;26.83;37.27
57086;BME280;42964;42.910;23.792;2023-06-10T15:41:53;96955.53;;;27.02;36.90
57086;BME280;42964;42.910;23.792;2023-06-10T15:46:52;96955.34;;;27.26;37.24
57086;BME280;42964;42.910;23.792;2023-06-10T15:51:51;96947.03;;;27.19;36.97
57086;BME280;42964;42.910;23.792;2023-06-10T15:56:50;96953.31;;;27.07;38.12
57086;BME280;42964;42.910;23.792;2023-06-10T16:01:49;96956.59;;;27.10;38.05
57086;BME280;42964;42.910;23.792;2023-06-10T16:06:48;96954.06;;;26.75;37.89
57086;BME280;42964;42.910;23.792;2023-06-10T16:11:47;96964.47;;;26.44;37.89
57086;BME280;42964;42.910;23.792;2023-06-10T16:16:46;96973.19;;;26.11;38.90
57086;BME280;42964;42.910;23.792;2023-06-10T16:21:45;96979.22;;;26.02;39.04
57086;BME280;42964;42.910;23.792;2023-06-10T16:26:44;96984.19;;;26.06;40.19
57086;BME280;42964;42.910;23.792;2023-06-10T16:31:43;96986.25;;;26.03;38.45
57086;BME280;42964;42.910;23.792;2023-06-10T16:36:42;96974.63;;;26.04;39.48
57086;BME280;42964;42.910;23.792;2023-06-10T16:41:41;96971.22;;;26.02;40.23
57086;BME280;42964;42.910;23.792;2023-06-10T16:46:40;96990.22;;;26.08;40.25
57086;BME280;42964;42.910;23.792;2023-06-10T16:51:39;96990.38;;;26.07;40.83
57086;BME280;42964;42.910;23.792;2023-06-10T16:56:38;97000.41;;;26.14;41.12
57086;BME280;42964;42.910;23.792;2023-06-10T17:01:37;97008.91;;;26.20;41.76
57086;BME280;42964;42.910;23.792;2023-06-10T17:06:36;97013.22;;;26.09;42.12
57086;BME280;42964;42.910;23.792;2023-06-10T17:11:35;97020.84;;;25.79;42.77
57086;BME280;42964;42.910;23.792;2023-06-10T17:16:34;97024.34;;;25.55;44.42
57086;BME280;42964;42.910;23.792;2023-06-10T17:21:33;97034.16;;;25.29;45.52
57086;BME280;42964;42.910;23.792;2023-06-10T17:26:32;97019.66;;;25.09;45.62
57086;BME280;42964;42.910;23.792;2023-06-10T17:31:30;97029.16;;;24.87;46.69
57086;BME280;42964;42.910;23.792;2023-06-10T17:36:29;97028.69;;;24.68;47.72
57086;BME280;42964;42.910;23.792;2023-06-10T17:41:28;97026.38;;;24.38;47.40
57086;BME280;42964;42.910;23.792;2023-06-10T17:46:27;97029.25;;;24.22;47.50
57086;BME280;42964;42.910;23.792;2023-06-10T17:51:26;97031.38;;;24.02;48.77
57086;BME280;42964;42.910;23.792;2023-06-10T17:56:25;97029.09;;;23.83;49.72
57086;BME280;42964;42.910;23.792;2023-06-10T18:01:25;97030.97;;;23.69;50.30
57086;BME280;42964;42.910;23.792;2023-06-10T18:06:24;97034.53;;;23.55;50.54
57086;BME280;42964;42.910;23.792;2023-06-10T18:11:25;97035.03;;;23.47;51.32
57086;BME280;42964;42.910;23.792;2023-06-10T18:16:24;97042.97;;;23.33;51.57
57086;BME280;42964;42.910;23.792;2023-06-10T18:21:25;97043.19;;;23.15;52.88
57086;BME280;42964;42.910;23.792;2023-06-10T18:26:25;97054.63;;;23.01;53.05
57086;BME280;42964;42.910;23.792;2023-06-10T18:31:24;97055.31;;;22.91;54.24
57086;BME280;42964;42.910;23.792;2023-06-10T18:36:23;97060.41;;;22.79;54.13
57086;BME280;42964;42.910;23.792;2023-06-10T18:41:23;97085.16;;;22.34;59.83
57086;BME280;42964;42.910;23.792;2023-06-10T18:46:22;97077.06;;;21.91;62.25
57086;BME280;42964;42.910;23.792;2023-06-10T18:51:21;97049.94;;;21.41;62.08
57086;BME280;42964;42.910;23.792;2023-06-10T18:56:21;97088.66;;;21.57;62.10
57086;BME280;42964;42.910;23.792;2023-06-10T19:01:20;97095.50;;;21.61;61.86
57086;BME280;42964;42.910;23.792;2023-06-10T19:06:19;97103.66;;;21.40;61.97
57086;BME280;42964;42.910;23.792;2023-06-10T19:11:18;97116.78;;;21.42;62.05
57086;BME280;42964;42.910;23.792;2023-06-10T19:16:17;97120.53;;;21.38;61.77
57086;BME280;42964;42.910;23.792;2023-06-10T19:21:15;97120.88;;;21.31;62.29
57086;BME280;42964;42.910;23.792;2023-06-10T19:26:14;97128.53;;;21.36;62.06
57086;BME280;42964;42.910;23.792;2023-06-10T19:31:14;97128.69;;;21.33;61.97
57086;BME280;42964;42.910;23.792;2023-06-10T19:36:13;97132.44;;;21.29;62.22
57086;BME280;42964;42.910;23.792;2023-06-10T19:41:12;97132.00;;;21.21;63.02
57086;BME280;42964;42.910;23.792;2023-06-10T19:46:11;97133.69;;;21.22;62.64
57086;BME280;42964;42.910;23.792;2023-06-10T19:51:10;97139.28;;;21.16;62.99
57086;BME280;42964;42.910;23.792;2023-06-10T19:56:09;97134.00;;;21.16;63.51
57086;BME280;42964;42.910;23.792;2023-06-10T20:01:10;97128.13;;;21.10;63.65
57086;BME280;42964;42.910;23.792;2023-06-10T20:06:09;97131.31;;;21.00;64.25
57086;BME280;42964;42.910;23.792;2023-06-10T20:11:08;97141.69;;;20.87;65.53
57086;BME280;42964;42.910;23.792;2023-06-10T20:16:09;97134.84;;;20.83;65.74
57086;BME280;42964;42.910;23.792;2023-06-10T20:21:08;97135.16;;;20.77;65.83
57086;BME280;42964;42.910;23.792;2023-06-10T20:26:07;97142.47;;;20.71;66.09
57086;BME280;42964;42.910;23.792;2023-06-10T20:31:06;97135.63;;;20.67;66.54
57086;BME280;42964;42.910;23.792;2023-06-10T20:36:05;97137.66;;;20.62;66.49
57086;BME280;42964;42.910;23.792;2023-06-10T20:41:04;97144.97;;;20.57;66.60
57086;BME280;42964;42.910;23.792;2023-06-10T20:46:03;97141.72;;;20.52;66.68
57086;BME280;42964;42.910;23.792;2023-06-10T20:51:02;97141.00;;;20.48;67.17
57086;BME280;42964;42.910;23.792;2023-06-10T20:56:01;97133.50;;;20.41;67.64
57086;BME280;42964;42.910;23.792;2023-06-10T21:01:00;97117.25;;;20.31;67.64
57086;BME280;42964;42.910;23.792;2023-06-10T21:05:59;97140.59;;;20.39;67.97
57086;BME280;42964;42.910;23.792;2023-06-10T21:10:58;97140.88;;;20.33;68.06
57086;BME280;42964;42.910;23.792;2023-06-10T21:15:58;97134.38;;;20.22;68.37
57086;BME280;42964;42.910;23.792;2023-06-10T21:20:57;97136.56;;;20.14;68.90
57086;BME280;42964;42.910;23.792;2023-06-10T21:25:56;97129.78;;;20.08;69.40
57086;BME280;42964;42.910;23.792;2023-06-10T21:30:55;97126.47;;;20.05;69.40
57086;BME280;42964;42.910;23.792;2023-06-10T21:35:54;97127.81;;;19.95;70.14
57086;BME280;42964;42.910;23.792;2023-06-10T21:40:53;97124.13;;;19.99;70.78
57086;BME280;42964;42.910;23.792;2023-06-10T21:45:53;97128.59;;;19.97;70.17
57086;BME280;42964;42.910;23.792;2023-06-10T21:50:52;97122.66;;;19.93;70.67
57086;BME280;42964;42.910;23.792;2023-06-10T21:55:51;97123.50;;;19.94;71.67
57086;BME280;42964;42.910;23.792;2023-06-10T22:00:50;97127.19;;;19.90;72.39
57086;BME280;42964;42.910;23.792;2023-06-10T22:05:49;97119.59;;;19.83;73.67
57086;BME280;42964;42.910;23.792;2023-06-10T22:10:48;97120.81;;;19.76;74.77
57086;BME280;42964;42.910;23.792;2023-06-10T22:15:47;97129.94;;;19.69;75.63
57086;BME280;42964;42.910;23.792;2023-06-10T22:20:46;97126.81;;;19.61;76.44
57086;BME280;42964;42.910;23.792;2023-06-10T22:25:45;97125.38;;;19.54;77.69
57086;BME280;42964;42.910;23.792;2023-06-10T22:30:44;97127.38;;;19.49;78.52
57086;BME280;42964;42.910;23.792;2023-06-10T22:35:44;97111.16;;;19.39;78.47
57086;BME280;42964;42.910;23.792;2023-06-10T22:40:43;97118.97;;;19.40;77.36
57086;BME280;42964;42.910;23.792;2023-06-10T22:45:42;97124.09;;;19.43;76.99
57086;BME280;42964;42.910;23.792;2023-06-10T22:50:41;97110.44;;;19.35;77.18
57086;BME280;42964;42.910;23.792;2023-06-10T22:55:40;97118.72;;;19.28;78.12
57086;BME280;42964;42.910;23.792;2023-06-10T23:00:39;97112.09;;;19.19;78.15
57086;BME280;42964;42.910;23.792;2023-06-10T23:05:38;97101.63;;;19.17;78.09
57086;BME280;42964;42.910;23.792;2023-06-10T23:10:37;97091.88;;;19.19;77.80
57086;BME280;42964;42.910;23.792;2023-06-10T23:15:36;97097.16;;;19.19;77.70
57086;BME280;42964;42.910;23.792;2023-06-10T23:20:34;97097.41;;;19.13;77.96
57086;BME280;42964;42.910;23.792;2023-06-10T23:25:34;97095.59;;;18.76;79.84
57086;BME280;42964;42.910;23.792;2023-06-10T23:30:33;97096.47;;;18.56;80.89
57086;BME280;42964;42.910;23.792;2023-06-10T23:35:32;97087.97;;;18.49;82.73
57086;BME280;42964;42.910;23.792;2023-06-10T23:40:34;97083.50;;;18.31;83.21
57086;BME280;42964;42.910;23.792;2023-06-10T23:45:33;97087.47;;;18.41;83.02
57086;BME280;42964;42.910;23.792;2023-06-10T23:50:32;97100.59;;;18.41;83.43
57086;BME280;42964;42.910;23.792;2023-06-10T23:55:34;97085.34;;;18.29;84.24
